LEJR/XRY METAR and TAF weather

Enter ICAO airport designator
Station Type Date Time Source
LEJR METAR 2021/01/27 14:00 UTC NOAA

LEJR 271400Z 01011KT 9999 SCT009 19/17 Q1025


Station Type Date Time Source
LEJR Decoded METAR 2021/01/27 14:00 UTC NOAA

Jerez De La Fronteraaeropuerto, Spain (LEJR) 36-45N 006-04W 28M
Jan 27, 2021 - 09:00 AM EST / 2021.01.27 1400 UTC
Wind: from the N (010 degrees) at 13 MPH (11 KT):0
Visibility: greater than 7 mile(s):0
Sky conditions: partly cloudy
Temperature: 66 F (19 C)
Dew Point: 62 F (17 C)
Relative Humidity: 88%
Pressure (altimeter): 30.27 in. Hg (1025 hPa)
ob: LEJR 271400Z 01011KT 9999 SCT009 19/17 Q1025
cycle: 14

Station Type Date Time Source
LEJR TAF 2021/01/27 12:27 UTC NOAA

TAF LEJR 271100Z 2712/2812 02006KT 9999 BKN004 TX20/2716Z TN09/2805Z
BECMG 2712/2715 FEW020 PROB30
TEMPO 2723/2804 1500 BCFG BR
TEMPO 2804/2811 0200 FG VV001

Example: see airport list